Time;durP1;ratioP1;P1;durP2;ratioP2;P2;SDS_P1;SDS_P2;PMS_P1;PMS_P2;Temp;Humidity;BMP_temperature;BMP_pressure;BME280_temperature;BME280_humidity;BME280_pressure;Samples;Min_cycle;Max_cycle;Signal;HPM_P1;HPM_P2
2023/06/25 00:01:27;;;;;;;;;4.00;4.00;;;;;29.56;36.99;101719.94;5077092;28;45413;-73
2023/06/25 00:03:52;;;;;;;;;2.33;2.33;;;;;29.54;36.84;101719.34;5077066;28;45334;-74
2023/06/25 00:06:19;;;;;;;;;3.00;3.00;;;;;29.57;37.02;101716.25;5077440;28;45365;-73
2023/06/25 00:08:45;;;;;;;;;3.00;3.00;;;;;29.56;36.82;101716.47;5076924;27;45441;-73
2023/06/25 00:11:10;;;;;;;;;3.00;3.00;;;;;29.54;36.94;101700.56;5076942;28;45347;-73
2023/06/25 00:13:36;;;;;;;;;3.00;3.00;;;;;29.55;36.84;101709.44;5076936;28;45337;-73
2023/06/25 00:16:01;;;;;;;;;5.67;5.00;;;;;29.54;36.91;101707.78;5076922;28;45324;-73
2023/06/25 00:18:26;;;;;;;;;3.00;3.00;;;;;29.56;36.96;101705.75;5077264;28;45189;-73
2023/06/25 00:20:52;;;;;;;;;3.00;3.00;;;;;29.54;36.72;101697.88;5076680;28;46352;-73
2023/06/25 00:23:18;;;;;;;;;3.33;3.33;;;;;29.52;37.02;101692.75;5076592;28;45268;-73
2023/06/25 00:25:43;;;;;;;;;4.00;4.00;;;;;29.54;36.91;101687.16;5076890;28;45562;-73
2023/06/25 00:28:08;;;;;;;;;4.00;4.00;;;;;29.56;36.70;101690.44;5076997;28;45442;-74
2023/06/25 00:30:35;;;;;;;;;4.67;3.33;;;;;29.55;36.82;101688.81;5076627;28;47222;-74
2023/06/25 00:33:00;;;;;;;;;4.00;4.00;;;;;29.56;36.57;101697.69;5076733;28;45339;-73
2023/06/25 00:35:27;;;;;;;;;3.67;3.67;;;;;29.56;37.03;101690.44;5075869;28;45383;-73
2023/06/25 00:37:57;;;;;;;;;6.00;4.67;;;;;29.55;36.98;101688.00;5076385;28;45473;-74
2023/06/25 00:40:23;;;;;;;;;4.00;4.00;;;;;29.55;37.01;101685.31;5076259;27;46341;-73
2023/06/25 00:42:56;;;;;;;;;3.67;3.67;;;;;29.55;36.83;101685.31;5075110;28;45944;-73
2023/06/25 00:45:24;;;;;;;;;4.33;4.33;;;;;29.52;36.86;101679.34;5076811;27;45270;-73
2023/06/25 00:47:50;;;;;;;;;3.33;3.33;;;;;29.53;36.69;101674.81;5076378;27;45365;-73
2023/06/25 00:50:15;;;;;;;;;4.33;4.33;;;;;29.52;36.57;101679.34;5091780;27;46481;-73
2023/06/25 00:52:41;;;;;;;;;4.00;4.00;;;;;29.51;36.83;101676.84;5076042;27;45377;-74
2023/06/25 00:55:09;;;;;;;;;4.33;4.33;;;;;29.52;37.11;101687.38;5076565;28;45359;-73
2023/06/25 00:57:35;;;;;;;;;5.33;5.33;;;;;29.53;37.00;101690.91;5076460;28;45347;-73
2023/06/25 01:00:01;;;;;;;;;4.67;4.00;;;;;29.52;36.92;101683.88;5076174;28;47067;-73
2023/06/25 01:02:46;;;;;;;;;3.33;3.33;;;;;29.51;37.18;101672.31;5076391;27;45479;-73
2023/06/25 01:05:22;;;;;;;;;5.33;5.00;;;;;29.53;36.66;101682.84;5076060;27;45422;-73
2023/06/25 01:07:49;;;;;;;;;3.00;3.00;;;;;29.52;36.60;101673.16;5076277;28;45327;-73
2023/06/25 01:10:14;;;;;;;;;4.67;4.67;;;;;29.53;36.80;101672.13;5075901;28;46222;-73
2023/06/25 01:12:42;;;;;;;;;4.00;3.00;;;;;29.52;36.88;101676.66;5075898;28;45419;-73
2023/06/25 01:15:09;;;;;;;;;4.00;3.00;;;;;29.54;36.79;101667.56;5076157;28;45645;-73
2023/06/25 01:17:36;;;;;;;;;3.67;3.33;;;;;29.52;37.25;101660.59;5076005;28;45373;-73
2023/06/25 01:20:04;;;;;;;;;3.00;3.00;;;;;29.52;36.86;101660.59;5075543;28;46444;-73
2023/06/25 01:22:31;;;;;;;;;4.00;4.00;;;;;29.52;36.64;101655.22;5075812;27;45520;-73
2023/06/25 01:24:59;;;;;;;;;3.00;3.00;;;;;29.52;36.95;101652.53;5076113;28;45358;-74
2023/06/25 01:27:25;;;;;;;;;3.33;3.33;;;;;29.51;36.81;101647.38;5075905;28;45244;-73
2023/06/25 01:29:51;;;;;;;;;5.00;5.00;;;;;29.52;36.49;101644.50;5075816;28;46119;-73
2023/06/25 01:32:17;;;;;;;;;3.33;3.00;;;;;29.54;37.01;101648.81;5075844;28;45246;-73
2023/06/25 01:34:43;;;;;;;;;3.67;3.67;;;;;29.50;36.73;101635.84;5075514;27;45281;-73
2023/06/25 01:37:09;;;;;;;;;4.67;3.33;;;;;29.53;36.84;101639.97;5076004;28;45355;-73
2023/06/25 01:39:34;;;;;;;;;3.67;3.00;;;;;29.52;36.70;101639.13;5075522;27;45967;-73
2023/06/25 01:42:00;;;;;;;;;3.00;3.00;;;;;29.50;36.79;101632.34;5075653;28;45327;-74
2023/06/25 01:44:30;;;;;;;;;3.33;3.33;;;;;29.51;36.92;101629.44;5075956;28;45767;-73
2023/06/25 01:46:56;;;;;;;;;3.00;3.00;;;;;29.49;36.52;101631.50;5076908;28;45373;-74
2023/06/25 01:49:22;;;;;;;;;3.33;3.33;;;;;29.51;36.86;101628.59;5078797;27;46177;-73
2023/06/25 01:51:47;;;;;;;;;4.00;3.50;;;;;29.51;36.75;101632.13;5079317;28;45433;-73
2023/06/25 01:54:13;;;;;;;;;3.67;3.67;;;;;29.51;36.78;101631.28;5079226;28;45267;-73
2023/06/25 01:56:38;;;;;;;;;4.00;4.00;;;;;29.49;36.52;101628.81;5079287;28;45277;-73
2023/06/25 01:59:04;;;;;;;;;3.00;3.00;;;;;29.51;36.58;101626.75;5079160;27;47174;-73
2023/06/25 02:01:29;;;;;;;;;5.00;5.00;;;;;29.50;36.87;101626.97;5078873;28;45374;-73
2023/06/25 02:03:55;;;;;;;;;3.00;3.00;;;;;29.51;37.12;101625.94;5078924;28;45367;-73
2023/06/25 02:06:21;;;;;;;;;8.33;7.00;;;;;29.51;36.71;101626.75;5079017;28;45598;-73
2023/06/25 02:08:46;;;;;;;;;5.00;5.00;;;;;29.49;37.06;101628.81;5078938;28;45912;-73
2023/06/25 02:11:12;;;;;;;;;5.00;5.00;;;;;29.46;36.87;101621.22;5078955;27;45371;-73
2023/06/25 02:13:37;;;;;;;;;4.00;4.00;;;;;29.50;37.04;101627.81;5078973;28;45342;-73
2023/06/25 02:16:03;;;;;;;;;4.00;4.00;;;;;29.51;37.04;101625.94;5078741;28;45282;-73
2023/06/25 02:18:29;;;;;;;;;3.00;3.00;;;;;29.51;37.07;101632.13;5078612;28;45435;-73
2023/06/25 02:20:54;;;;;;;;;3.67;3.67;;;;;29.51;36.60;101628.59;5078670;27;45172;-73
2023/06/25 02:23:20;;;;;;;;;3.00;3.00;;;;;29.49;36.79;101626.16;5078791;28;45394;-73
2023/06/25 02:25:48;;;;;;;;;4.00;4.00;;;;;29.50;36.81;101625.13;5078727;27;45325;-73
2023/06/25 02:28:13;;;;;;;;;5.00;5.00;;;;;29.50;37.16;101630.50;5078840;28;47282;-73
2023/06/25 02:30:38;;;;;;;;;4.33;4.33;;;;;29.49;36.89;101622.63;5078568;28;45431;-73
2023/06/25 02:33:04;;;;;;;;;3.00;2.67;;;;;29.49;37.02;101628.81;5078287;28;45408;-73
2023/06/25 02:35:29;;;;;;;;;4.00;4.00;;;;;29.49;36.80;101622.63;5078707;28;45346;-73
2023/06/25 02:37:55;;;;;;;;;3.33;2.00;;;;;29.50;36.89;101622.44;5078576;28;45314;-73
2023/06/25 02:40:21;;;;;;;;;3.33;3.33;;;;;29.50;36.80;101608.22;5078355;27;45393;-73
2023/06/25 02:42:46;;;;;;;;;5.00;4.00;;;;;29.50;36.87;101611.72;5078629;28;45476;-73
2023/06/25 02:45:11;;;;;;;;;5.67;5.67;;;;;29.44;36.76;101598.34;5078409;28;45369;-73
2023/06/25 02:47:37;;;;;;;;;3.67;3.67;;;;;29.49;37.16;101603.88;5078049;28;46306;-73
2023/06/25 02:50:02;;;;;;;;;3.00;3.00;;;;;29.50;36.81;101603.69;5078191;28;46362;-73
2023/06/25 02:52:27;;;;;;;;;3.67;3.67;;;;;29.49;36.89;101596.66;5078624;28;45346;-73
2023/06/25 02:54:53;;;;;;;;;4.00;4.00;;;;;29.44;36.89;101590.28;5078345;28;45343;-73
2023/06/25 02:57:18;;;;;;;;;3.33;3.33;;;;;29.49;36.85;101599.34;5078134;28;47102;-73
2023/06/25 02:59:43;;;;;;;;;4.00;4.00;;;;;29.46;37.13;101597.09;5077553;28;45297;-73
2023/06/25 03:02:09;;;;;;;;;3.00;3.00;;;;;29.51;37.13;101607.16;5093642;27;45352;-73
2023/06/25 03:04:34;;;;;;;;;5.00;5.00;;;;;29.50;36.89;101601.00;5078114;28;45418;-73
2023/06/25 03:06:59;;;;;;;;;3.00;3.00;;;;;29.50;37.02;101602.84;5078111;28;45359;-73
2023/06/25 03:09:25;;;;;;;;;5.00;4.67;;;;;29.46;36.97;101591.72;5078008;28;45422;-73
2023/06/25 03:11:50;;;;;;;;;4.67;4.67;;;;;29.50;36.85;101594.81;5078210;28;45352;-73
2023/06/25 03:14:15;;;;;;;;;3.00;3.00;;;;;29.50;36.81;101597.50;5078058;28;45406;-73
2023/06/25 03:16:41;;;;;;;;;4.00;4.00;;;;;29.46;36.92;101589.03;5077298;28;46932;-73
2023/06/25 03:19:06;;;;;;;;;3.33;3.33;;;;;29.48;36.97;101594.22;5077995;28;45305;-73
2023/06/25 03:21:32;;;;;;;;;4.00;4.00;;;;;29.49;36.88;101599.34;5077912;27;45379;-73
2023/06/25 03:23:57;;;;;;;;;4.00;4.00;;;;;29.47;36.99;101596.06;5093641;27;45527;-73
2023/06/25 03:26:22;;;;;;;;;3.00;3.00;;;;;29.47;37.22;101593.38;5077802;28;45333;-73
2023/06/25 03:28:48;;;;;;;;;5.00;4.00;;;;;29.49;36.82;101595.84;5077932;28;45339;-73
2023/06/25 03:31:13;;;;;;;;;3.33;3.33;;;;;29.48;36.88;101588.84;5077638;28;45308;-73
2023/06/25 03:33:38;;;;;;;;;4.00;4.00;;;;;29.48;36.82;101587.00;5077845;28;45600;-73
2023/06/25 03:36:04;;;;;;;;;3.00;3.00;;;;;29.48;36.90;101589.69;5077609;27;45366;-73
2023/06/25 03:38:29;;;;;;;;;4.67;3.33;;;;;29.45;37.03;101586.59;5077533;27;45561;-73
2023/06/25 03:40:55;;;;;;;;;3.00;3.00;;;;;29.48;36.99;101589.69;5077627;28;45443;-73
2023/06/25 03:43:20;;;;;;;;;4.00;4.00;;;;;29.47;37.08;101588.03;5077712;27;45397;-73
2023/06/25 03:45:45;;;;;;;;;3.67;3.00;;;;;29.46;36.83;101589.03;5075787;28;47085;-73
2023/06/25 03:48:11;;;;;;;;;3.00;3.00;;;;;29.46;36.91;101582.88;5077501;27;45460;-73
2023/06/25 03:50:36;;;;;;;;;5.00;5.00;;;;;29.44;36.62;101582.25;5077342;28;45810;-73
2023/06/25 03:53:01;;;;;;;;;4.67;4.67;;;;;29.44;37.04;101575.03;5077468;28;45334;-73
2023/06/25 03:55:27;;;;;;;;;3.67;3.67;;;;;29.48;37.20;101584.31;5077272;28;45357;-74
2023/06/25 03:57:55;;;;;;;;;3.33;3.33;;;;;29.45;37.03;101578.53;5076993;28;52744;-73
2023/06/25 04:00:20;;;;;;;;;3.00;3.00;;;;;29.46;37.23;101578.31;5077187;28;45292;-73
2023/06/25 04:02:45;;;;;;;;;3.00;3.00;;;;;29.47;37.25;101574.63;5077119;28;45303;-73
2023/06/25 04:05:11;;;;;;;;;3.00;3.00;;;;;29.46;37.01;101570.28;5077106;28;46334;-73
2023/06/25 04:07:36;;;;;;;;;2.00;2.00;;;;;29.44;36.51;101567.00;5077132;28;45317;-73
2023/06/25 04:10:02;;;;;;;;;3.00;3.00;;;;;29.47;37.21;101569.25;5076283;28;45210;-73
2023/06/25 04:12:27;;;;;;;;;3.00;3.00;;;;;29.47;36.65;101569.25;5076922;28;45367;-73
2023/06/25 04:14:53;;;;;;;;;1.67;1.67;;;;;29.47;36.84;101571.94;5076504;28;47067;-74
2023/06/25 04:17:18;;;;;;;;;4.33;4.33;;;;;29.46;36.84;101569.47;5076861;28;45309;-73
2023/06/25 04:19:43;;;;;;;;;2.67;2.67;;;;;29.49;36.86;101572.53;5077271;28;45506;-73
2023/06/25 04:22:09;;;;;;;;;3.67;2.00;;;;;29.47;36.74;101569.25;5076943;28;45387;-73
2023/06/25 04:24:34;;;;;;;;;4.00;4.00;;;;;29.51;36.79;101565.09;5076861;28;46135;-74
2023/06/25 04:26:59;;;;;;;;;2.00;2.00;;;;;29.49;37.09;101564.50;5076732;28;45394;-73
2023/06/25 04:29:24;;;;;;;;;3.00;3.00;;;;;29.51;36.87;101562.41;5076636;28;45330;-74
2023/06/25 04:31:50;;;;;;;;;2.67;2.33;;;;;29.53;37.06;101567.59;5076984;27;45298;-74
2023/06/25 04:34:15;;;;;;;;;2.67;2.67;;;;;29.54;36.59;101573.75;5076642;28;46373;-74
2023/06/25 04:36:40;;;;;;;;;5.00;3.33;;;;;29.54;36.97;101571.06;5092117;27;45418;-74
2023/06/25 04:39:06;;;;;;;;;6.00;4.00;;;;;29.56;36.65;101577.06;5076537;27;45324;-74
2023/06/25 04:41:31;;;;;;;;;3.00;3.00;;;;;29.57;36.91;101576.00;5076333;27;48148;-74
2023/06/25 04:43:56;;;;;;;;;4.67;4.67;;;;;29.55;36.50;101575.41;5076170;28;46277;-74
2023/06/25 04:46:22;;;;;;;;;4.00;4.00;;;;;29.57;36.83;101576.81;5076647;28;45410;-74
2023/06/25 04:48:47;;;;;;;;;2.33;2.33;;;;;29.57;36.89;101574.16;5092338;27;45410;-74
2023/06/25 04:51:13;;;;;;;;;4.67;4.67;;;;;29.62;36.46;101574.31;5076401;28;45284;-74
2023/06/25 04:53:39;;;;;;;;;4.00;3.00;;;;;29.65;36.50;101574.94;5076392;28;46053;-74
2023/06/25 04:56:04;;;;;;;;;3.33;3.00;;;;;29.66;36.49;101573.91;5076345;28;45389;-74
2023/06/25 04:58:29;;;;;;;;;4.00;4.00;;;;;29.68;36.84;101561.91;5076249;28;45340;-74
2023/06/25 05:00:55;;;;;;;;;2.00;2.00;;;;;29.70;36.40;101567.88;5076450;28;45413;-73
2023/06/25 05:03:20;;;;;;;;;4.00;4.00;;;;;29.68;36.44;101558.41;5076277;27;45572;-74
2023/06/25 05:05:45;;;;;;;;;3.00;3.00;;;;;29.75;36.74;101567.25;5076419;28;45443;-74
2023/06/25 05:08:11;;;;;;;;;3.00;3.00;;;;;29.76;37.08;101562.72;5076323;28;45474;-74
2023/06/25 05:10:36;;;;;;;;;4.00;4.00;;;;;29.74;36.45;101557.59;5076283;28;45316;-73
2023/06/25 05:13:02;;;;;;;;;3.33;3.33;;;;;29.83;36.48;101560.81;5075747;28;45920;-74
2023/06/25 05:15:28;;;;;;;;;5.00;4.00;;;;;29.81;36.32;101561.03;5075877;27;45316;-74
2023/06/25 05:17:53;;;;;;;;;6.00;4.67;;;;;29.83;36.44;101555.47;5076151;28;45209;-74
2023/06/25 05:20:18;;;;;;;;;3.00;3.00;;;;;29.88;36.59;101558.31;5076232;27;45344;-74
2023/06/25 05:22:44;;;;;;;;;2.67;2.67;;;;;29.90;36.29;101555.44;5075307;28;47389;-74
2023/06/25 05:25:09;;;;;;;;;3.67;3.67;;;;;29.93;36.30;101563.00;5075930;28;47570;-74
2023/06/25 05:27:34;;;;;;;;;3.00;3.00;;;;;29.94;36.24;101559.31;5075599;27;45345;-74
2023/06/25 05:30:00;;;;;;;;;3.00;2.00;;;;;29.97;36.43;101556.19;5076143;28;45310;-74
2023/06/25 05:32:25;;;;;;;;;2.67;2.33;;;;;30.01;36.70;101553.88;5076149;27;45473;-74
2023/06/25 05:34:50;;;;;;;;;4.00;4.00;;;;;30.01;36.47;101551.19;5075543;28;51508;-74
2023/06/25 05:37:15;;;;;;;;;3.00;3.00;;;;;30.04;36.28;101538.19;5075910;28;45319;-74
2023/06/25 05:39:41;;;;;;;;;3.00;2.00;;;;;30.10;36.39;101547.22;5075711;27;45507;-73
2023/06/25 05:42:06;;;;;;;;;2.67;2.00;;;;;30.10;36.16;101539.16;5075346;27;46178;-74
2023/06/25 05:44:31;;;;;;;;;4.00;4.00;;;;;30.16;36.20;101549.00;5075602;28;45373;-74
2023/06/25 05:46:57;;;;;;;;;4.33;4.33;;;;;30.20;36.47;101540.53;5075870;27;45294;-75
2023/06/25 05:49:22;;;;;;;;;2.00;2.00;;;;;30.24;36.18;101541.75;5075822;27;45345;-74
2023/06/25 05:51:48;;;;;;;;;4.33;4.00;;;;;30.28;36.22;101545.63;5075568;27;45406;-74
2023/06/25 05:54:13;;;;;;;;;3.67;3.67;;;;;30.33;36.20;101542.31;5075597;28;45490;-74
2023/06/25 05:56:38;;;;;;;;;3.33;3.33;;;;;30.38;36.17;101543.28;5075395;28;45361;-73
2023/06/25 05:59:04;;;;;;;;;3.67;3.67;;;;;30.45;36.03;101542.38;5075811;28;45236;-74
2023/06/25 06:01:29;;;;;;;;;2.33;2.33;;;;;30.50;36.10;101538.00;5075346;28;46906;-74
2023/06/25 06:03:54;;;;;;;;;3.00;3.00;;;;;30.58;35.91;101546.81;5074098;28;45325;-74
2023/06/25 06:06:19;;;;;;;;;4.00;4.00;;;;;30.71;35.87;101543.16;5075666;28;45232;-74
2023/06/25 06:08:45;;;;;;;;;4.00;3.00;;;;;30.83;35.32;101540.56;5075627;28;45274;-74
2023/06/25 06:11:10;;;;;;;;;3.33;3.33;;;;;30.92;35.15;101546.44;5075207;28;45170;-74
2023/06/25 06:13:36;;;;;;;;;1.67;1.67;;;;;31.01;34.84;101539.75;5074011;28;45325;-74
2023/06/25 06:16:02;;;;;;;;;4.00;4.00;;;;;31.03;35.01;101537.66;5075254;28;45436;-84
2023/06/25 06:18:28;;;;;;;;;1.33;1.33;;;;;31.07;34.73;101538.84;5075568;28;45328;-83
2023/06/25 06:20:53;;;;;;;;;2.67;2.67;;;;;31.07;35.01;101530.00;5090983;27;48245;-83
2023/06/25 06:23:18;;;;;;;;;3.33;2.00;;;;;31.06;35.29;101528.34;5091199;27;45297;-84
2023/06/25 06:25:44;;;;;;;;;4.33;3.33;;;;;31.12;35.01;101534.69;5073709;28;45366;-84
2023/06/25 06:28:09;;;;;;;;;2.00;1.33;;;;;31.09;35.09;101527.06;5090579;27;45659;-84
2023/06/25 06:30:34;;;;;;;;;3.00;2.33;;;;;31.11;35.08;101528.47;5073413;27;47041;-84
2023/06/25 06:33:00;;;;;;;;;3.33;3.33;;;;;31.11;34.86;101533.03;5075088;28;45354;-84
2023/06/25 06:35:25;;;;;;;;;2.33;1.67;;;;;31.07;35.20;101533.47;5093637;27;45334;-84
2023/06/25 06:37:50;;;;;;;;;1.33;1.33;;;;;31.07;34.49;101533.47;5094385;27;45588;-83
2023/06/25 06:40:16;;;;;;;;;2.67;2.67;;;;;30.99;35.23;101515.00;5077682;27;46183;-84
2023/06/25 06:42:41;;;;;;;;;2.67;2.67;;;;;31.06;35.54;101518.41;5093649;27;45359;-84
2023/06/25 06:45:07;;;;;;;;;4.00;2.33;;;;;31.05;35.07;101515.94;5094312;27;45336;-84
2023/06/25 06:47:32;;;;;;;;;2.00;2.00;;;;;31.01;34.86;101512.91;5078483;27;45592;-84
2023/06/25 06:50:00;;;;;;;;;2.67;2.67;;;;;31.07;35.53;101530.78;5078282;27;45961;-84
2023/06/25 06:52:25;;;;;;;;;2.67;2.67;;;;;31.09;34.50;101527.88;5077827;27;45384;-84
2023/06/25 06:54:51;;;;;;;;;3.33;3.33;;;;;31.05;34.78;101508.69;5076921;28;45394;-84
2023/06/25 06:57:17;;;;;;;;;2.33;2.33;;;;;30.99;35.20;101503.41;5078183;27;45513;-83
2023/06/25 06:59:45;;;;;;;;;2.33;2.33;;;;;31.11;35.08;101522.28;5077957;27;45892;-84
2023/06/25 07:02:11;;;;;;;;;2.67;2.67;;;;;31.11;34.99;101515.03;5076964;27;45481;-84
2023/06/25 07:04:37;;;;;;;;;2.00;2.00;;;;;31.09;35.23;101511.75;5076774;28;45444;-84
2023/06/25 07:07:02;;;;;;;;;2.67;2.67;;;;;31.12;34.99;101510.50;5093734;27;45742;-84
2023/06/25 07:09:28;;;;;;;;;1.67;1.67;;;;;31.11;35.04;101506.16;5076190;28;48344;-84
2023/06/25 07:11:53;;;;;;;;;3.67;3.67;;;;;31.14;35.16;101508.38;5076658;28;45351;-83
2023/06/25 07:14:18;;;;;;;;;2.00;2.00;;;;;31.12;35.03;101500.56;5093813;27;45362;-84
2023/06/25 07:16:44;;;;;;;;;2.00;2.00;;;;;31.15;34.84;101499.28;5093556;27;45623;-83
2023/06/25 07:19:10;;;;;;;;;2.67;2.67;;;;;31.09;35.11;101489.44;5076459;28;46895;-83
2023/06/25 07:21:35;;;;;;;;;3.33;3.33;;;;;31.12;34.83;101500.56;5077750;27;45231;-84
2023/06/25 07:24:00;;;;;;;;;2.33;2.33;;;;;31.11;35.10;101501.59;5077604;28;45639;-83
2023/06/25 07:26:27;;;;;;;;;3.00;2.00;;;;;31.15;34.90;101505.47;5077858;28;45426;-83
2023/06/25 07:28:52;;;;;;;;;1.67;1.67;;;;;31.14;34.63;101498.47;5077228;28;45698;-83
2023/06/25 07:31:18;;;;;;;;;2.67;2.67;;;;;31.13;34.90;101493.31;5077373;28;45367;-84
2023/06/25 07:33:43;;;;;;;;;2.00;2.00;;;;;31.16;35.54;101496.38;5078523;27;45204;-83
2023/06/25 07:36:08;;;;;;;;;2.67;1.00;;;;;31.13;35.37;101494.13;5077397;27;45686;-83
2023/06/25 07:38:34;;;;;;;;;2.67;1.67;;;;;31.17;35.36;101494.50;5077199;27;46160;-83
2023/06/25 07:40:59;;;;;;;;;2.00;2.00;;;;;31.12;35.10;101480.94;5077416;27;45386;-84
2023/06/25 07:43:25;;;;;;;;;1.33;1.33;;;;;31.21;35.22;101492.16;5077769;27;45458;-83
2023/06/25 07:45:50;;;;;;;;;2.67;2.67;;;;;31.09;34.97;101474.16;5077452;27;45306;-84
2023/06/25 07:48:15;;;;;;;;;2.33;2.33;;;;;31.22;35.31;101489.28;5077443;28;46177;-83
2023/06/25 07:50:41;;;;;;;;;1.67;1.33;;;;;31.21;35.06;101484.09;5076964;28;45283;-84
2023/06/25 07:53:06;;;;;;;;;2.33;2.33;;;;;31.15;35.44;101475.09;5077119;27;45815;-83
2023/06/25 07:55:40;;;;;;;;;2.33;2.33;;;;;31.21;35.29;101482.25;5077448;27;45469;-83
2023/06/25 07:58:06;;;;;;;;;2.33;2.33;;;;;31.21;35.32;101482.25;5077170;28;45393;-83
2023/06/25 08:00:31;;;;;;;;;2.33;2.33;;;;;31.26;35.42;101487.75;5075613;28;45335;-84
2023/06/25 08:02:57;;;;;;;;;2.00;2.00;;;;;31.22;35.12;101481.19;5077071;27;45483;-84
2023/06/25 08:05:22;;;;;;;;;4.00;4.00;;;;;31.24;35.25;101479.09;5075875;28;45474;-84
2023/06/25 08:07:47;;;;;;;;;2.33;2.33;;;;;31.24;35.44;101479.09;5075210;28;47210;-83
2023/06/25 08:10:13;;;;;;;;;2.33;2.33;;;;;31.24;35.24;101468.34;5075961;27;45698;-83
2023/06/25 08:12:39;;;;;;;;;3.00;2.67;;;;;31.28;34.82;101463.31;5077145;28;45345;-83
2023/06/25 08:15:05;;;;;;;;;1.33;1.33;;;;;31.28;35.18;101468.69;5075320;28;45524;-84
2023/06/25 08:17:31;;;;;;;;;3.00;2.67;;;;;31.29;35.16;101470.34;5076597;27;46495;-83
2023/06/25 08:19:56;;;;;;;;;3.00;2.00;;;;;31.26;34.73;101460.03;5076710;27;45308;-83
2023/06/25 08:22:21;;;;;;;;;1.33;1.33;;;;;31.26;35.39;101460.03;5075376;27;45572;-84
2023/06/25 08:24:46;;;;;;;;;2.00;2.00;;;;;31.28;35.48;101456.09;5076949;27;45404;-83
2023/06/25 08:27:12;;;;;;;;;2.33;2.33;;;;;31.27;35.43;101451.78;5092430;27;46229;-83
2023/06/25 08:29:37;;;;;;;;;1.33;1.33;;;;;31.26;34.84;101447.44;5076687;27;45366;-83
2023/06/25 08:32:03;;;;;;;;;3.00;2.33;;;;;31.24;35.07;101436.09;5076764;28;45260;-83
2023/06/25 08:34:28;;;;;;;;;2.00;2.00;;;;;31.28;35.24;101450.72;5074887;28;45286;-83
2023/06/25 08:36:55;;;;;;;;;3.33;3.33;;;;;31.32;35.38;101452.94;5076310;28;47239;-83
2023/06/25 08:39:20;;;;;;;;;1.00;1.00;;;;;31.28;34.57;101441.81;5076500;27;45446;-84
2023/06/25 08:41:46;;;;;;;;;2.00;2.00;;;;;31.30;35.01;101445.13;5092450;27;45339;-83
2023/06/25 08:44:11;;;;;;;;;2.67;2.00;;;;;31.29;35.48;101440.78;5092481;27;45589;-84
2023/06/25 08:46:40;;;;;;;;;3.33;3.33;;;;;31.28;34.83;101436.44;5092051;27;46146;-84
2023/06/25 08:49:05;;;;;;;;;1.67;1.67;;;;;31.26;35.11;101434.00;5076493;27;45382;-84
2023/06/25 08:51:31;;;;;;;;;2.67;2.67;;;;;31.30;34.94;101439.75;5088297;27;45421;-84
2023/06/25 08:53:57;;;;;;;;;5.67;3.67;;;;;31.25;34.92;101424.31;5056423;28;45355;-83
2023/06/25 08:56:22;;;;;;;;;3.50;2.00;;;;;31.30;35.61;101437.06;5055308;27;46638;-83
2023/06/25 08:58:48;;;;;;;;;2.33;2.00;;;;;31.25;35.33;101423.47;5055991;28;45348;-83
2023/06/25 09:01:13;;;;;;;;;3.00;2.00;;;;;31.30;35.28;101437.06;5055993;28;45411;-83
2023/06/25 09:03:41;;;;;;;;;0.67;0.67;;;;;31.33;35.53;101439.25;5056117;28;45371;-84
2023/06/25 09:06:13;;;;;;;;;4.00;4.00;;;;;31.32;35.23;101437.63;5054524;28;48064;-83
2023/06/25 09:08:39;;;;;;;;;3.33;1.00;;;;;31.28;35.49;101425.69;5055903;28;45298;-83
2023/06/25 09:11:04;;;;;;;;;3.00;3.00;;;;;31.32;35.16;101426.06;5071190;28;45356;-83
2023/06/25 09:13:30;;;;;;;;;4.00;3.67;;;;;31.31;35.06;101424.41;5071467;28;45492;-83
2023/06/25 09:16:04;;;;;;;;;1.67;1.67;;;;;31.28;35.50;101414.94;5055581;28;46383;-83
2023/06/25 09:18:30;;;;;;;;;2.67;2.67;;;;;31.34;35.25;101424.78;5055755;28;45548;-83
2023/06/25 09:20:56;;;;;;;;;5.33;3.67;;;;;31.35;34.98;101426.44;5088501;27;45380;-83
2023/06/25 09:23:23;;;;;;;;;4.33;2.67;;;;;31.32;35.29;101420.69;5088051;27;45479;-82
2023/06/25 09:25:52;;;;;;;;;4.00;3.00;;;;;31.34;35.18;101427.47;5054272;28;47037;-82
2023/06/25 09:28:19;;;;;;;;;2.33;2.33;;;;;31.31;35.00;101408.28;5087805;27;45302;-82
2023/06/25 09:30:45;;;;;;;;;2.33;2.33;;;;;31.21;35.47;101388.16;5071268;27;45413;-83
2023/06/25 09:33:11;;;;;;;;;4.67;4.00;;;;;31.35;35.35;101404.09;5087919;27;45470;-82
2023/06/25 09:35:37;;;;;;;;;3.50;3.50;;;;;31.28;35.54;101394.25;5055187;28;47338;-83
2023/06/25 09:38:02;;;;;;;;;2.67;1.33;;;;;31.33;35.53;101398.94;5071254;27;45414;-83
2023/06/25 09:40:28;;;;;;;;;4.00;3.33;;;;;31.29;35.00;101387.84;5074578;27;45400;-83
2023/06/25 09:42:57;;;;;;;;;3.67;2.67;;;;;31.32;34.99;101385.75;5075872;27;45442;-83
2023/06/25 09:45:24;;;;;;;;;3.67;3.33;;;;;31.35;35.20;101394.16;5075624;28;45483;-83
2023/06/25 09:47:51;;;;;;;;;1.33;1.33;;;;;31.31;35.38;101386.78;5075272;28;45405;-83
2023/06/25 09:50:18;;;;;;;;;3.33;3.33;;;;;31.30;35.47;101388.66;5074373;28;45363;-83
2023/06/25 09:52:55;;;;;;;;;1.67;1.33;;;;;31.33;35.32;101385.50;5074252;28;45546;-83
2023/06/25 09:55:21;;;;;;;;;6.00;4.00;;;;;31.31;35.28;101387.59;5074124;28;45391;-82
2023/06/25 09:57:48;;;;;;;;;3.67;3.33;;;;;31.29;35.35;101382.47;5091161;27;45731;-83
2023/06/25 10:00:16;;;;;;;;;2.67;2.67;;;;;31.32;35.49;101386.56;5074302;27;45504;-83
2023/06/25 10:02:41;;;;;;;;;3.33;3.33;;;;;31.29;35.18;101374.41;5074936;27;45304;-82
2023/06/25 10:05:07;;;;;;;;;3.67;2.00;;;;;31.27;35.31;101364.94;5075243;28;46340;-83
2023/06/25 10:07:33;;;;;;;;;3.00;3.00;;;;;31.32;35.33;101369.63;5091774;27;45378;-83
2023/06/25 10:09:58;;;;;;;;;1.67;1.67;;;;;31.30;35.76;101367.16;5079745;27;45337;-83
2023/06/25 10:12:24;;;;;;;;;3.00;2.00;;;;;31.32;35.40;101369.63;5077646;28;45304;-83
2023/06/25 10:14:49;;;;;;;;;4.00;4.00;;;;;31.24;35.05;101360.84;5078680;28;47550;-82
2023/06/25 10:17:15;;;;;;;;;2.00;2.00;;;;;31.28;35.46;101361.19;5078431;28;45312;-82
2023/06/25 10:19:52;;;;;;;;;3.00;3.00;;;;;31.29;35.62;101357.44;5077662;28;45309;-82
2023/06/25 10:22:22;;;;;;;;;3.67;3.00;;;;;31.27;35.23;101357.69;5078899;28;45260;-82
2023/06/25 10:24:49;;;;;;;;;3.00;2.00;;;;;31.17;35.44;101333.25;5078664;28;47511;-82
2023/06/25 10:27:27;;;;;;;;;4.00;4.00;;;;;31.27;36.00;101351.50;5077017;28;45311;-82
2023/06/25 10:29:54;;;;;;;;;3.67;3.00;;;;;31.24;35.32;101339.34;5078125;28;45305;-83
2023/06/25 10:32:39;;;;;;;;;4.00;4.00;;;;;31.26;35.80;101349.84;5078364;28;45497;-82
2023/06/25 10:35:05;;;;;;;;;3.67;3.67;;;;;31.22;35.81;101346.00;5077133;28;47154;-82
2023/06/25 10:37:32;;;;;;;;;3.67;3.67;;;;;31.24;35.61;101347.41;5093683;27;45410;-82
2023/06/25 10:40:04;;;;;;;;;3.00;3.00;;;;;31.16;35.55;101331.59;5078640;27;45341;-82
2023/06/25 10:42:31;;;;;;;;;2.33;2.33;;;;;31.24;35.46;101349.25;5078499;28;45361;-83
2023/06/25 10:44:57;;;;;;;;;2.00;2.00;;;;;31.23;35.71;101336.91;5078292;27;46300;-83
2023/06/25 10:47:22;;;;;;;;;3.67;3.67;;;;;31.20;35.44;101338.19;5078250;27;45450;-83
2023/06/25 10:49:47;;;;;;;;;4.00;4.00;;;;;31.21;36.14;101338.97;5077293;28;45412;-83
2023/06/25 10:52:13;;;;;;;;;3.67;2.33;;;;;31.16;35.46;101324.38;5090398;27;45311;-82
2023/06/25 10:54:39;;;;;;;;;3.33;3.33;;;;;31.17;35.68;101330.56;5073368;28;47435;-82
2023/06/25 10:57:09;;;;;;;;;4.00;3.00;;;;;31.15;35.33;101333.47;5058149;28;45324;-82
2023/06/25 10:59:35;;;;;;;;;5.33;4.33;;;;;31.16;36.17;101327.06;5058164;28;45382;-83
2023/06/25 11:02:19;;;;;;;;;3.00;3.00;;;;;31.14;35.47;101323.78;5057649;28;45401;-82
2023/06/25 11:04:55;;;;;;;;;5.67;4.00;;;;;31.13;35.90;101326.69;5057828;28;46298;-83
2023/06/25 11:07:21;;;;;;;;;4.00;4.00;;;;;31.11;35.47;101328.81;5057681;28;45359;-82
2023/06/25 11:09:52;;;;;;;;;5.33;3.33;;;;;31.04;35.61;101316.31;5056554;28;45449;-82
2023/06/25 11:12:17;;;;;;;;;4.67;4.00;;;;;31.05;35.79;101319.78;5057786;28;45380;-83
2023/06/25 11:14:44;;;;;;;;;3.00;3.00;;;;;31.00;35.48;101308.91;5072711;28;47277;-82
2023/06/25 11:17:09;;;;;;;;;3.67;3.67;;;;;31.03;35.69;101317.34;5057658;28;45368;-83
2023/06/25 11:19:35;;;;;;;;;3.00;3.00;;;;;30.97;35.82;101306.72;5057559;28;45481;-83